Terminal Aerodrome Forecast
Issued by NWS Wilmington, OH

Current Version | Previous Version | Graphics & Text | Print | Product List | Glossary On
Versions: 1 2 3 4 5 6 7 8 9 10 11 12 13 14 15 16 17 18 19 20 21 22 23 24 25 26 27 28 29 30 31
000
FTUS41 KILN 200200 AAA
TAFILN
TAF AMD
KILN 200204Z 2002/2024 VRB03KT P6SM BKN050
     FM200700 00000KT 5SM BR OVC012
      TEMPO 2008/2011 2SM BR
     FM201400 11004KT P6SM OVC025
     FM201800 13006KT P6SM BKN035=

USA.gov is the U.S. government's official web portal to all federal, state and local government web resources and services.